sensor_id;sensor_type;location;lat;lon;timestamp;P1;durP1;ratioP1;P2;durP2;ratioP2
5458;SDS011;2752;49.992;8.422;2024-01-30T00:00:52;31.70;;;14.70;;
5458;SDS011;2752;49.992;8.422;2024-01-30T00:03:19;36.67;;;12.27;;
5458;SDS011;2752;49.992;8.422;2024-01-30T00:05:46;27.63;;;13.70;;
5458;SDS011;2752;49.992;8.422;2024-01-30T00:08:13;28.70;;;11.10;;
5458;SDS011;2752;49.992;8.422;2024-01-30T00:10:40;25.20;;;12.33;;
5458;SDS011;2752;49.992;8.422;2024-01-30T00:13:08;30.50;;;12.00;;
5458;SDS011;2752;49.992;8.422;2024-01-30T00:15:35;28.30;;;13.07;;
5458;SDS011;2752;49.992;8.422;2024-01-30T00:18:02;28.53;;;13.00;;
5458;SDS011;2752;49.992;8.422;2024-01-30T00:20:29;29.97;;;12.57;;
5458;SDS011;2752;49.992;8.422;2024-01-30T00:22:56;26.83;;;12.80;;
5458;SDS011;2752;49.992;8.422;2024-01-30T00:25:23;24.13;;;11.90;;
5458;SDS011;2752;49.992;8.422;2024-01-30T00:27:50;27.87;;;13.37;;
5458;SDS011;2752;49.992;8.422;2024-01-30T00:30:19;31.23;;;12.13;;
5458;SDS011;2752;49.992;8.422;2024-01-30T00:32:46;33.57;;;12.93;;
5458;SDS011;2752;49.992;8.422;2024-01-30T00:35:14;31.53;;;13.43;;
5458;SDS011;2752;49.992;8.422;2024-01-30T00:37:41;29.53;;;12.97;;
5458;SDS011;2752;49.992;8.422;2024-01-30T00:40:08;27.53;;;12.57;;
5458;SDS011;2752;49.992;8.422;2024-01-30T00:42:40;29.47;;;13.60;;
5458;SDS011;2752;49.992;8.422;2024-01-30T00:45:11;31.13;;;12.03;;
5458;SDS011;2752;49.992;8.422;2024-01-30T00:47:39;26.47;;;13.70;;
5458;SDS011;2752;49.992;8.422;2024-01-30T00:50:07;30.53;;;13.87;;
5458;SDS011;2752;49.992;8.422;2024-01-30T00:52:34;35.60;;;13.47;;
5458;SDS011;2752;49.992;8.422;2024-01-30T00:55:01;22.30;;;12.17;;
5458;SDS011;2752;49.992;8.422;2024-01-30T00:57:28;30.87;;;12.53;;
5458;SDS011;2752;49.992;8.422;2024-01-30T00:59:55;31.23;;;14.67;;
5458;SDS011;2752;49.992;8.422;2024-01-30T01:02:22;31.17;;;13.67;;
5458;SDS011;2752;49.992;8.422;2024-01-30T01:04:51;33.97;;;14.07;;
5458;SDS011;2752;49.992;8.422;2024-01-30T01:07:18;29.23;;;13.90;;
5458;SDS011;2752;49.992;8.422;2024-01-30T01:09:45;24.27;;;12.60;;
5458;SDS011;2752;49.992;8.422;2024-01-30T01:12:12;24.07;;;12.97;;
5458;SDS011;2752;49.992;8.422;2024-01-30T01:14:40;31.27;;;14.23;;
5458;SDS011;2752;49.992;8.422;2024-01-30T01:17:07;28.27;;;14.33;;
5458;SDS011;2752;49.992;8.422;2024-01-30T01:19:34;30.07;;;13.50;;
5458;SDS011;2752;49.992;8.422;2024-01-30T01:22:02;28.13;;;12.80;;
5458;SDS011;2752;49.992;8.422;2024-01-30T01:24:30;28.63;;;14.80;;
5458;SDS011;2752;49.992;8.422;2024-01-30T01:26:57;30.57;;;13.80;;
5458;SDS011;2752;49.992;8.422;2024-01-30T01:29:24;31.00;;;14.37;;
5458;SDS011;2752;49.992;8.422;2024-01-30T01:31:53;24.07;;;12.77;;
5458;SDS011;2752;49.992;8.422;2024-01-30T01:34:21;25.23;;;13.90;;
5458;SDS011;2752;49.992;8.422;2024-01-30T01:36:48;25.93;;;13.70;;
5458;SDS011;2752;49.992;8.422;2024-01-30T01:39:17;34.83;;;12.80;;
5458;SDS011;2752;49.992;8.422;2024-01-30T01:41:44;26.57;;;11.60;;
5458;SDS011;2752;49.992;8.422;2024-01-30T01:44:11;26.40;;;12.90;;
5458;SDS011;2752;49.992;8.422;2024-01-30T01:46:38;32.20;;;13.73;;
5458;SDS011;2752;49.992;8.422;2024-01-30T01:49:05;30.50;;;12.53;;
5458;SDS011;2752;49.992;8.422;2024-01-30T01:51:33;28.57;;;13.30;;
5458;SDS011;2752;49.992;8.422;2024-01-30T01:54:02;29.27;;;13.10;;
5458;SDS011;2752;49.992;8.422;2024-01-30T01:56:31;26.20;;;12.80;;
5458;SDS011;2752;49.992;8.422;2024-01-30T01:58:59;25.10;;;12.30;;
5458;SDS011;2752;49.992;8.422;2024-01-30T02:01:27;30.47;;;12.67;;
5458;SDS011;2752;49.992;8.422;2024-01-30T02:03:55;31.10;;;11.17;;
5458;SDS011;2752;49.992;8.422;2024-01-30T02:06:22;30.10;;;12.13;;
5458;SDS011;2752;49.992;8.422;2024-01-30T02:08:49;23.33;;;12.00;;
5458;SDS011;2752;49.992;8.422;2024-01-30T02:11:16;26.27;;;10.17;;
5458;SDS011;2752;49.992;8.422;2024-01-30T02:13:45;27.23;;;11.83;;
5458;SDS011;2752;49.992;8.422;2024-01-30T02:16:12;21.30;;;10.57;;
5458;SDS011;2752;49.992;8.422;2024-01-30T02:18:39;24.03;;;11.53;;
5458;SDS011;2752;49.992;8.422;2024-01-30T02:21:09;23.27;;;11.87;;
5458;SDS011;2752;49.992;8.422;2024-01-30T02:23:36;25.30;;;11.50;;
5458;SDS011;2752;49.992;8.422;2024-01-30T02:26:04;27.30;;;12.20;;
5458;SDS011;2752;49.992;8.422;2024-01-30T02:28:31;28.73;;;11.33;;
5458;SDS011;2752;49.992;8.422;2024-01-30T02:30:58;26.03;;;12.53;;
5458;SDS011;2752;49.992;8.422;2024-01-30T02:33:25;27.73;;;12.17;;
5458;SDS011;2752;49.992;8.422;2024-01-30T02:35:52;36.50;;;14.43;;
5458;SDS011;2752;49.992;8.422;2024-01-30T02:38:21;26.40;;;11.70;;
5458;SDS011;2752;49.992;8.422;2024-01-30T02:40:48;23.97;;;12.03;;
5458;SDS011;2752;49.992;8.422;2024-01-30T02:43:15;29.00;;;11.70;;
5458;SDS011;2752;49.992;8.422;2024-01-30T02:45:43;35.03;;;12.40;;
5458;SDS011;2752;49.992;8.422;2024-01-30T02:48:10;26.73;;;12.93;;
5458;SDS011;2752;49.992;8.422;2024-01-30T02:50:37;40.23;;;12.70;;
5458;SDS011;2752;49.992;8.422;2024-01-30T02:53:04;30.23;;;12.00;;
5458;SDS011;2752;49.992;8.422;2024-01-30T02:55:32;27.23;;;11.00;;
5458;SDS011;2752;49.992;8.422;2024-01-30T02:58:00;29.70;;;12.03;;
5458;SDS011;2752;49.992;8.422;2024-01-30T03:00:27;42.60;;;14.10;;
5458;SDS011;2752;49.992;8.422;2024-01-30T03:02:54;23.93;;;10.70;;
5458;SDS011;2752;49.992;8.422;2024-01-30T03:05:21;25.07;;;12.30;;
5458;SDS011;2752;49.992;8.422;2024-01-30T03:07:48;27.23;;;13.97;;
5458;SDS011;2752;49.992;8.422;2024-01-30T03:10:15;30.70;;;11.30;;
5458;SDS011;2752;49.992;8.422;2024-01-30T03:12:43;25.33;;;11.87;;
5458;SDS011;2752;49.992;8.422;2024-01-30T03:15:10;29.23;;;12.60;;
5458;SDS011;2752;49.992;8.422;2024-01-30T03:17:37;22.90;;;12.20;;
5458;SDS011;2752;49.992;8.422;2024-01-30T03:20:05;27.37;;;11.77;;
5458;SDS011;2752;49.992;8.422;2024-01-30T03:22:32;22.90;;;12.83;;
5458;SDS011;2752;49.992;8.422;2024-01-30T03:24:59;30.50;;;12.97;;
5458;SDS011;2752;49.992;8.422;2024-01-30T03:27:26;28.70;;;12.40;;
5458;SDS011;2752;49.992;8.422;2024-01-30T03:29:55;24.37;;;13.60;;
5458;SDS011;2752;49.992;8.422;2024-01-30T03:32:22;31.50;;;12.10;;
5458;SDS011;2752;49.992;8.422;2024-01-30T03:34:49;29.50;;;12.40;;
5458;SDS011;2752;49.992;8.422;2024-01-30T03:37:16;27.00;;;11.50;;
5458;SDS011;2752;49.992;8.422;2024-01-30T03:39:43;28.97;;;12.97;;
5458;SDS011;2752;49.992;8.422;2024-01-30T03:42:10;22.60;;;12.10;;
5458;SDS011;2752;49.992;8.422;2024-01-30T03:44:37;27.93;;;13.20;;
5458;SDS011;2752;49.992;8.422;2024-01-30T03:47:05;32.10;;;12.30;;
5458;SDS011;2752;49.992;8.422;2024-01-30T03:49:32;22.00;;;11.27;;
5458;SDS011;2752;49.992;8.422;2024-01-30T03:51:59;25.03;;;12.27;;
5458;SDS011;2752;49.992;8.422;2024-01-30T03:54:26;23.50;;;11.10;;
5458;SDS011;2752;49.992;8.422;2024-01-30T03:56:53;23.40;;;12.67;;
5458;SDS011;2752;49.992;8.422;2024-01-30T03:59:20;30.20;;;11.43;;
5458;SDS011;2752;49.992;8.422;2024-01-30T04:01:49;25.87;;;13.10;;
5458;SDS011;2752;49.992;8.422;2024-01-30T04:04:18;22.47;;;12.23;;
5458;SDS011;2752;49.992;8.422;2024-01-30T04:06:45;29.63;;;13.03;;
5458;SDS011;2752;49.992;8.422;2024-01-30T04:09:12;38.23;;;12.43;;
5458;SDS011;2752;49.992;8.422;2024-01-30T04:11:39;30.30;;;13.00;;
5458;SDS011;2752;49.992;8.422;2024-01-30T04:14:08;35.07;;;12.90;;
5458;SDS011;2752;49.992;8.422;2024-01-30T04:16:35;29.17;;;13.33;;
5458;SDS011;2752;49.992;8.422;2024-01-30T04:19:02;33.17;;;12.50;;
5458;SDS011;2752;49.992;8.422;2024-01-30T04:21:31;27.93;;;12.40;;
5458;SDS011;2752;49.992;8.422;2024-01-30T04:23:58;28.77;;;12.73;;
5458;SDS011;2752;49.992;8.422;2024-01-30T04:26:25;24.90;;;12.80;;
5458;SDS011;2752;49.992;8.422;2024-01-30T04:28:52;41.37;;;13.57;;
5458;SDS011;2752;49.992;8.422;2024-01-30T04:31:19;48.63;;;14.10;;
5458;SDS011;2752;49.992;8.422;2024-01-30T04:33:46;25.07;;;12.07;;
5458;SDS011;2752;49.992;8.422;2024-01-30T04:36:13;25.87;;;12.40;;
5458;SDS011;2752;49.992;8.422;2024-01-30T04:38:41;29.17;;;11.97;;
5458;SDS011;2752;49.992;8.422;2024-01-30T04:41:08;36.27;;;13.60;;
5458;SDS011;2752;49.992;8.422;2024-01-30T04:43:36;24.63;;;12.83;;
5458;SDS011;2752;49.992;8.422;2024-01-30T04:46:03;27.97;;;14.20;;
5458;SDS011;2752;49.992;8.422;2024-01-30T04:48:31;31.80;;;13.00;;
5458;SDS011;2752;49.992;8.422;2024-01-30T04:50:58;23.27;;;12.07;;
5458;SDS011;2752;49.992;8.422;2024-01-30T04:53:27;26.90;;;13.47;;
5458;SDS011;2752;49.992;8.422;2024-01-30T04:55:56;33.30;;;13.87;;
5458;SDS011;2752;49.992;8.422;2024-01-30T04:58:23;33.87;;;13.90;;
5458;SDS011;2752;49.992;8.422;2024-01-30T05:00:50;29.87;;;12.70;;
5458;SDS011;2752;49.992;8.422;2024-01-30T05:03:17;35.40;;;13.27;;
5458;SDS011;2752;49.992;8.422;2024-01-30T05:05:44;30.53;;;12.97;;
5458;SDS011;2752;49.992;8.422;2024-01-30T05:08:11;29.07;;;14.03;;
5458;SDS011;2752;49.992;8.422;2024-01-30T05:10:38;30.43;;;12.20;;
5458;SDS011;2752;49.992;8.422;2024-01-30T05:13:06;28.70;;;11.97;;
5458;SDS011;2752;49.992;8.422;2024-01-30T05:15:33;28.00;;;12.90;;
5458;SDS011;2752;49.992;8.422;2024-01-30T05:18:00;25.27;;;11.97;;
5458;SDS011;2752;49.992;8.422;2024-01-30T05:20:27;28.17;;;12.20;;
5458;SDS011;2752;49.992;8.422;2024-01-30T05:22:54;30.70;;;14.10;;
5458;SDS011;2752;49.992;8.422;2024-01-30T05:25:21;27.13;;;11.67;;
5458;SDS011;2752;49.992;8.422;2024-01-30T05:27:49;30.37;;;12.70;;
5458;SDS011;2752;49.992;8.422;2024-01-30T05:30:17;26.47;;;11.77;;
5458;SDS011;2752;49.992;8.422;2024-01-30T05:32:44;27.50;;;11.50;;
5458;SDS011;2752;49.992;8.422;2024-01-30T05:35:11;22.43;;;11.10;;
5458;SDS011;2752;49.992;8.422;2024-01-30T05:37:38;19.93;;;11.63;;
5458;SDS011;2752;49.992;8.422;2024-01-30T05:40:06;23.20;;;9.73;;
5458;SDS011;2752;49.992;8.422;2024-01-30T05:42:33;20.87;;;11.40;;
5458;SDS011;2752;49.992;8.422;2024-01-30T05:45:00;22.00;;;11.77;;
5458;SDS011;2752;49.992;8.422;2024-01-30T05:47:29;30.60;;;11.03;;
5458;SDS011;2752;49.992;8.422;2024-01-30T05:49:56;25.73;;;11.70;;
5458;SDS011;2752;49.992;8.422;2024-01-30T05:52:23;22.43;;;10.37;;
5458;SDS011;2752;49.992;8.422;2024-01-30T05:54:50;24.87;;;11.77;;
5458;SDS011;2752;49.992;8.422;2024-01-30T05:57:17;25.63;;;9.83;;
5458;SDS011;2752;49.992;8.422;2024-01-30T05:59:44;31.37;;;12.50;;
5458;SDS011;2752;49.992;8.422;2024-01-30T06:02:12;25.07;;;10.40;;
5458;SDS011;2752;49.992;8.422;2024-01-30T06:04:41;27.97;;;12.63;;
5458;SDS011;2752;49.992;8.422;2024-01-30T06:07:09;25.60;;;10.87;;
5458;SDS011;2752;49.992;8.422;2024-01-30T06:09:36;28.70;;;12.10;;
5458;SDS011;2752;49.992;8.422;2024-01-30T06:12:03;21.60;;;11.20;;
5458;SDS011;2752;49.992;8.422;2024-01-30T06:14:30;24.93;;;11.20;;
5458;SDS011;2752;49.992;8.422;2024-01-30T06:16:57;23.73;;;10.27;;
5458;SDS011;2752;49.992;8.422;2024-01-30T06:19:24;21.30;;;10.20;;
5458;SDS011;2752;49.992;8.422;2024-01-30T06:21:53;23.13;;;10.90;;
5458;SDS011;2752;49.992;8.422;2024-01-30T06:24:20;35.00;;;11.57;;
5458;SDS011;2752;49.992;8.422;2024-01-30T06:26:47;24.37;;;11.20;;
5458;SDS011;2752;49.992;8.422;2024-01-30T06:29:14;26.17;;;10.00;;
5458;SDS011;2752;49.992;8.422;2024-01-30T06:31:41;17.93;;;10.80;;
5458;SDS011;2752;49.992;8.422;2024-01-30T06:34:09;18.83;;;9.40;;
5458;SDS011;2752;49.992;8.422;2024-01-30T06:36:36;28.47;;;10.43;;
5458;SDS011;2752;49.992;8.422;2024-01-30T06:39:05;25.90;;;10.50;;
5458;SDS011;2752;49.992;8.422;2024-01-30T06:41:32;27.27;;;9.90;;
5458;SDS011;2752;49.992;8.422;2024-01-30T06:43:59;21.83;;;10.47;;
5458;SDS011;2752;49.992;8.422;2024-01-30T06:46:26;25.70;;;10.73;;
5458;SDS011;2752;49.992;8.422;2024-01-30T06:48:53;26.97;;;11.93;;
5458;SDS011;2752;49.992;8.422;2024-01-30T06:51:20;20.17;;;9.83;;
5458;SDS011;2752;49.992;8.422;2024-01-30T06:53:47;30.50;;;12.10;;
5458;SDS011;2752;49.992;8.422;2024-01-30T06:56:15;21.33;;;11.17;;
5458;SDS011;2752;49.992;8.422;2024-01-30T06:58:45;19.30;;;10.90;;
5458;SDS011;2752;49.992;8.422;2024-01-30T07:01:12;22.43;;;11.67;;
5458;SDS011;2752;49.992;8.422;2024-01-30T07:03:39;29.00;;;11.77;;
5458;SDS011;2752;49.992;8.422;2024-01-30T07:06:07;26.77;;;11.20;;
5458;SDS011;2752;49.992;8.422;2024-01-30T07:08:34;30.87;;;10.80;;
5458;SDS011;2752;49.992;8.422;2024-01-30T07:11:02;24.83;;;10.83;;
5458;SDS011;2752;49.992;8.422;2024-01-30T07:13:30;21.37;;;10.43;;
5458;SDS011;2752;49.992;8.422;2024-01-30T07:15:57;34.60;;;10.73;;
5458;SDS011;2752;49.992;8.422;2024-01-30T07:18:24;25.20;;;10.07;;
5458;SDS011;2752;49.992;8.422;2024-01-30T07:20:51;27.00;;;9.90;;
5458;SDS011;2752;49.992;8.422;2024-01-30T07:23:18;32.10;;;10.73;;
5458;SDS011;2752;49.992;8.422;2024-01-30T07:25:45;30.80;;;11.83;;
5458;SDS011;2752;49.992;8.422;2024-01-30T07:28:13;23.10;;;11.10;;
5458;SDS011;2752;49.992;8.422;2024-01-30T07:30:43;27.77;;;11.87;;
5458;SDS011;2752;49.992;8.422;2024-01-30T07:33:10;18.13;;;10.07;;
5458;SDS011;2752;49.992;8.422;2024-01-30T07:35:37;35.40;;;13.47;;
5458;SDS011;2752;49.992;8.422;2024-01-30T07:38:04;31.47;;;13.10;;
5458;SDS011;2752;49.992;8.422;2024-01-30T07:40:31;30.10;;;11.20;;
5458;SDS011;2752;49.992;8.422;2024-01-30T07:42:58;31.73;;;13.87;;
5458;SDS011;2752;49.992;8.422;2024-01-30T07:45:25;32.57;;;13.40;;
5458;SDS011;2752;49.992;8.422;2024-01-30T07:47:59;24.40;;;11.47;;
5458;SDS011;2752;49.992;8.422;2024-01-30T07:50:26;30.83;;;14.07;;
5458;SDS011;2752;49.992;8.422;2024-01-30T07:52:53;29.00;;;12.07;;
5458;SDS011;2752;49.992;8.422;2024-01-30T07:55:20;29.80;;;11.87;;
5458;SDS011;2752;49.992;8.422;2024-01-30T07:57:49;38.03;;;14.40;;
5458;SDS011;2752;49.992;8.422;2024-01-30T08:00:17;34.87;;;12.23;;
5458;SDS011;2752;49.992;8.422;2024-01-30T08:02:44;22.27;;;12.17;;
5458;SDS011;2752;49.992;8.422;2024-01-30T08:05:13;29.83;;;12.40;;
5458;SDS011;2752;49.992;8.422;2024-01-30T08:07:40;25.30;;;12.43;;
5458;SDS011;2752;49.992;8.422;2024-01-30T08:10:07;30.30;;;12.33;;
5458;SDS011;2752;49.992;8.422;2024-01-30T08:12:34;22.20;;;11.53;;
5458;SDS011;2752;49.992;8.422;2024-01-30T08:15:01;25.33;;;12.03;;
5458;SDS011;2752;49.992;8.422;2024-01-30T08:17:29;28.20;;;12.83;;
5458;SDS011;2752;49.992;8.422;2024-01-30T08:19:56;27.90;;;12.77;;
5458;SDS011;2752;49.992;8.422;2024-01-30T08:22:24;27.97;;;12.60;;
5458;SDS011;2752;49.992;8.422;2024-01-30T08:24:51;30.13;;;14.07;;
5458;SDS011;2752;49.992;8.422;2024-01-30T08:27:18;30.17;;;14.23;;
5458;SDS011;2752;49.992;8.422;2024-01-30T08:29:45;28.47;;;14.90;;
5458;SDS011;2752;49.992;8.422;2024-01-30T08:32:12;34.07;;;17.03;;
5458;SDS011;2752;49.992;8.422;2024-01-30T08:34:39;35.23;;;15.50;;
5458;SDS011;2752;49.992;8.422;2024-01-30T08:37:06;38.60;;;16.83;;
5458;SDS011;2752;49.992;8.422;2024-01-30T08:39:34;30.70;;;16.43;;
5458;SDS011;2752;49.992;8.422;2024-01-30T08:42:02;37.10;;;17.43;;
5458;SDS011;2752;49.992;8.422;2024-01-30T08:44:29;34.63;;;15.70;;
5458;SDS011;2752;49.992;8.422;2024-01-30T08:46:56;32.67;;;16.40;;
5458;SDS011;2752;49.992;8.422;2024-01-30T08:49:23;38.10;;;18.77;;
5458;SDS011;2752;49.992;8.422;2024-01-30T08:51:50;39.20;;;17.60;;
5458;SDS011;2752;49.992;8.422;2024-01-30T08:54:17;32.27;;;17.03;;
5458;SDS011;2752;49.992;8.422;2024-01-30T08:56:45;37.27;;;17.13;;
5458;SDS011;2752;49.992;8.422;2024-01-30T08:59:12;34.60;;;17.20;;
5458;SDS011;2752;49.992;8.422;2024-01-30T09:01:39;36.77;;;16.80;;
5458;SDS011;2752;49.992;8.422;2024-01-30T09:04:06;35.90;;;17.10;;
5458;SDS011;2752;49.992;8.422;2024-01-30T09:06:33;27.73;;;15.37;;
5458;SDS011;2752;49.992;8.422;2024-01-30T09:09:00;29.33;;;14.37;;
5458;SDS011;2752;49.992;8.422;2024-01-30T09:11:27;40.50;;;17.30;;
5458;SDS011;2752;49.992;8.422;2024-01-30T09:13:56;47.03;;;17.83;;
5458;SDS011;2752;49.992;8.422;2024-01-30T09:16:23;39.83;;;18.10;;
5458;SDS011;2752;49.992;8.422;2024-01-30T09:18:50;38.80;;;18.00;;
5458;SDS011;2752;49.992;8.422;2024-01-30T09:21:17;37.30;;;17.87;;
5458;SDS011;2752;49.992;8.422;2024-01-30T09:23:44;53.10;;;20.53;;
5458;SDS011;2752;49.992;8.422;2024-01-30T09:26:11;35.77;;;17.17;;
5458;SDS011;2752;49.992;8.422;2024-01-30T09:28:38;44.53;;;19.03;;
5458;SDS011;2752;49.992;8.422;2024-01-30T09:31:10;35.67;;;17.30;;
5458;SDS011;2752;49.992;8.422;2024-01-30T09:33:37;30.37;;;17.63;;
5458;SDS011;2752;49.992;8.422;2024-01-30T09:36:05;34.27;;;16.40;;
5458;SDS011;2752;49.992;8.422;2024-01-30T09:38:32;40.70;;;17.17;;
5458;SDS011;2752;49.992;8.422;2024-01-30T09:41:00;34.23;;;16.30;;
5458;SDS011;2752;49.992;8.422;2024-01-30T09:43:31;29.27;;;16.60;;
5458;SDS011;2752;49.992;8.422;2024-01-30T09:45:59;37.57;;;17.43;;
5458;SDS011;2752;49.992;8.422;2024-01-30T09:48:28;37.17;;;16.47;;
5458;SDS011;2752;49.992;8.422;2024-01-30T09:50:56;45.57;;;18.00;;
5458;SDS011;2752;49.992;8.422;2024-01-30T09:53:23;32.23;;;15.70;;
5458;SDS011;2752;49.992;8.422;2024-01-30T09:55:50;37.97;;;17.27;;
5458;SDS011;2752;49.992;8.422;2024-01-30T09:58:17;41.13;;;20.20;;
5458;SDS011;2752;49.992;8.422;2024-01-30T10:00:44;36.40;;;17.70;;
5458;SDS011;2752;49.992;8.422;2024-01-30T10:03:12;40.67;;;18.60;;
5458;SDS011;2752;49.992;8.422;2024-01-30T10:05:41;41.00;;;18.87;;
5458;SDS011;2752;49.992;8.422;2024-01-30T10:08:08;41.87;;;18.50;;
5458;SDS011;2752;49.992;8.422;2024-01-30T10:10:35;35.90;;;18.77;;
5458;SDS011;2752;49.992;8.422;2024-01-30T10:13:02;33.50;;;16.90;;
5458;SDS011;2752;49.992;8.422;2024-01-30T10:15:29;37.27;;;19.70;;
5458;SDS011;2752;49.992;8.422;2024-01-30T10:17:56;36.20;;;17.03;;
5458;SDS011;2752;49.992;8.422;2024-01-30T10:20:24;32.60;;;16.10;;
5458;SDS011;2752;49.992;8.422;2024-01-30T10:22:52;31.10;;;17.07;;
5458;SDS011;2752;49.992;8.422;2024-01-30T10:25:21;49.40;;;18.63;;
5458;SDS011;2752;49.992;8.422;2024-01-30T10:27:52;34.23;;;16.10;;
5458;SDS011;2752;49.992;8.422;2024-01-30T10:30:20;33.10;;;14.30;;
5458;SDS011;2752;49.992;8.422;2024-01-30T10:32:47;33.43;;;15.23;;
5458;SDS011;2752;49.992;8.422;2024-01-30T10:35:14;28.80;;;15.53;;
5458;SDS011;2752;49.992;8.422;2024-01-30T10:37:43;28.23;;;13.47;;
5458;SDS011;2752;49.992;8.422;2024-01-30T10:40:13;28.53;;;13.57;;
5458;SDS011;2752;49.992;8.422;2024-01-30T10:42:42;23.37;;;13.47;;
5458;SDS011;2752;49.992;8.422;2024-01-30T10:45:09;25.33;;;13.90;;
5458;SDS011;2752;49.992;8.422;2024-01-30T10:47:37;28.03;;;13.00;;
5458;SDS011;2752;49.992;8.422;2024-01-30T10:50:07;29.03;;;12.97;;
5458;SDS011;2752;49.992;8.422;2024-01-30T10:52:35;25.23;;;12.30;;
5458;SDS011;2752;49.992;8.422;2024-01-30T10:55:03;22.90;;;11.67;;
5458;SDS011;2752;49.992;8.422;2024-01-30T10:57:33;25.63;;;11.77;;
5458;SDS011;2752;49.992;8.422;2024-01-30T11:00:01;32.07;;;12.03;;
5458;SDS011;2752;49.992;8.422;2024-01-30T11:02:30;21.50;;;11.73;;
5458;SDS011;2752;49.992;8.422;2024-01-30T11:04:57;25.20;;;12.30;;
5458;SDS011;2752;49.992;8.422;2024-01-30T11:07:26;24.57;;;11.80;;
5458;SDS011;2752;49.992;8.422;2024-01-30T11:09:53;23.70;;;13.20;;
5458;SDS011;2752;49.992;8.422;2024-01-30T11:12:21;29.90;;;12.23;;
5458;SDS011;2752;49.992;8.422;2024-01-30T11:14:50;26.80;;;12.47;;
5458;SDS011;2752;49.992;8.422;2024-01-30T11:17:17;21.67;;;11.83;;
5458;SDS011;2752;49.992;8.422;2024-01-30T11:19:44;25.33;;;11.10;;
5458;SDS011;2752;49.992;8.422;2024-01-30T11:22:12;29.07;;;13.30;;
5458;SDS011;2752;49.992;8.422;2024-01-30T11:24:40;29.47;;;12.83;;
5458;SDS011;2752;49.992;8.422;2024-01-30T11:27:08;24.13;;;11.03;;
5458;SDS011;2752;49.992;8.422;2024-01-30T11:29:35;28.00;;;13.37;;
5458;SDS011;2752;49.992;8.422;2024-01-30T11:32:04;21.00;;;11.50;;
5458;SDS011;2752;49.992;8.422;2024-01-30T11:34:32;23.20;;;11.30;;
5458;SDS011;2752;49.992;8.422;2024-01-30T11:37:02;27.77;;;11.67;;
5458;SDS011;2752;49.992;8.422;2024-01-30T11:39:30;19.43;;;11.17;;
5458;SDS011;2752;49.992;8.422;2024-01-30T11:41:57;20.97;;;11.30;;
5458;SDS011;2752;49.992;8.422;2024-01-30T11:44:25;23.77;;;11.43;;
5458;SDS011;2752;49.992;8.422;2024-01-30T11:46:52;30.20;;;11.10;;
5458;SDS011;2752;49.992;8.422;2024-01-30T11:49:20;20.80;;;11.30;;
5458;SDS011;2752;49.992;8.422;2024-01-30T11:51:47;23.17;;;10.87;;
5458;SDS011;2752;49.992;8.422;2024-01-30T11:54:15;18.60;;;10.03;;
5458;SDS011;2752;49.992;8.422;2024-01-30T11:56:42;18.90;;;11.07;;
5458;SDS011;2752;49.992;8.422;2024-01-30T11:59:09;21.20;;;11.00;;
5458;SDS011;2752;49.992;8.422;2024-01-30T12:01:36;20.97;;;11.53;;
5458;SDS011;2752;49.992;8.422;2024-01-30T12:04:03;19.13;;;11.47;;
5458;SDS011;2752;49.992;8.422;2024-01-30T12:06:35;25.07;;;11.67;;
5458;SDS011;2752;49.992;8.422;2024-01-30T12:09:03;35.93;;;16.00;;
5458;SDS011;2752;49.992;8.422;2024-01-30T12:11:30;21.13;;;11.80;;
5458;SDS011;2752;49.992;8.422;2024-01-30T12:13:57;18.03;;;10.80;;
5458;SDS011;2752;49.992;8.422;2024-01-30T12:16:25;23.43;;;11.17;;
5458;SDS011;2752;49.992;8.422;2024-01-30T12:18:58;21.10;;;11.63;;
5458;SDS011;2752;49.992;8.422;2024-01-30T12:21:26;19.07;;;10.63;;
5458;SDS011;2752;49.992;8.422;2024-01-30T12:23:55;17.13;;;10.13;;
5458;SDS011;2752;49.992;8.422;2024-01-30T12:26:23;25.03;;;11.27;;
5458;SDS011;2752;49.992;8.422;2024-01-30T12:28:50;23.40;;;11.37;;
5458;SDS011;2752;49.992;8.422;2024-01-30T12:31:17;25.80;;;12.20;;
5458;SDS011;2752;49.992;8.422;2024-01-30T12:33:44;24.40;;;11.37;;
5458;SDS011;2752;49.992;8.422;2024-01-30T12:36:11;23.33;;;10.97;;
5458;SDS011;2752;49.992;8.422;2024-01-30T12:38:38;21.70;;;11.37;;
5458;SDS011;2752;49.992;8.422;2024-01-30T12:41:08;19.60;;;10.70;;
5458;SDS011;2752;49.992;8.422;2024-01-30T12:43:35;21.10;;;11.20;;
5458;SDS011;2752;49.992;8.422;2024-01-30T12:46:02;20.53;;;10.93;;
5458;SDS011;2752;49.992;8.422;2024-01-30T12:48:29;26.47;;;11.87;;
5458;SDS011;2752;49.992;8.422;2024-01-30T12:50:56;20.20;;;10.97;;
5458;SDS011;2752;49.992;8.422;2024-01-30T12:53:23;21.63;;;10.87;;
5458;SDS011;2752;49.992;8.422;2024-01-30T12:55:50;19.97;;;10.80;;
5458;SDS011;2752;49.992;8.422;2024-01-30T12:58:20;23.00;;;11.50;;
5458;SDS011;2752;49.992;8.422;2024-01-30T13:00:47;21.50;;;11.17;;
5458;SDS011;2752;49.992;8.422;2024-01-30T13:03:14;34.50;;;13.10;;
5458;SDS011;2752;49.992;8.422;2024-01-30T13:05:41;20.37;;;11.93;;
5458;SDS011;2752;49.992;8.422;2024-01-30T13:08:09;19.70;;;10.37;;
5458;SDS011;2752;49.992;8.422;2024-01-30T13:10:36;20.63;;;11.17;;
5458;SDS011;2752;49.992;8.422;2024-01-30T13:13:03;20.33;;;11.47;;
5458;SDS011;2752;49.992;8.422;2024-01-30T13:15:31;17.57;;;10.80;;
5458;SDS011;2752;49.992;8.422;2024-01-30T13:17:58;21.40;;;10.33;;
5458;SDS011;2752;49.992;8.422;2024-01-30T13:20:25;23.20;;;11.53;;
5458;SDS011;2752;49.992;8.422;2024-01-30T13:22:52;21.90;;;10.70;;
5458;SDS011;2752;49.992;8.422;2024-01-30T13:25:19;24.70;;;11.37;;
5458;SDS011;2752;49.992;8.422;2024-01-30T13:27:46;26.27;;;12.77;;
5458;SDS011;2752;49.992;8.422;2024-01-30T13:30:13;21.87;;;10.57;;
5458;SDS011;2752;49.992;8.422;2024-01-30T13:32:42;26.00;;;12.13;;
5458;SDS011;2752;49.992;8.422;2024-01-30T13:35:10;24.53;;;11.77;;
5458;SDS011;2752;49.992;8.422;2024-01-30T13:37:37;22.00;;;12.13;;
5458;SDS011;2752;49.992;8.422;2024-01-30T13:40:05;21.00;;;11.23;;
5458;SDS011;2752;49.992;8.422;2024-01-30T13:42:33;23.03;;;11.33;;
5458;SDS011;2752;49.992;8.422;2024-01-30T13:45:00;20.07;;;11.87;;
5458;SDS011;2752;49.992;8.422;2024-01-30T13:47:27;21.27;;;12.50;;
5458;SDS011;2752;49.992;8.422;2024-01-30T13:49:56;21.60;;;12.03;;
5458;SDS011;2752;49.992;8.422;2024-01-30T13:52:23;22.70;;;10.27;;
5458;SDS011;2752;49.992;8.422;2024-01-30T13:54:50;22.63;;;11.20;;
5458;SDS011;2752;49.992;8.422;2024-01-30T13:57:17;20.80;;;11.40;;
5458;SDS011;2752;49.992;8.422;2024-01-30T13:59:44;20.23;;;9.83;;
5458;SDS011;2752;49.992;8.422;2024-01-30T14:02:11;16.67;;;10.20;;
5458;SDS011;2752;49.992;8.422;2024-01-30T14:04:38;22.03;;;11.67;;
5458;SDS011;2752;49.992;8.422;2024-01-30T14:07:07;21.60;;;11.50;;
5458;SDS011;2752;49.992;8.422;2024-01-30T14:09:34;20.63;;;13.37;;
5458;SDS011;2752;49.992;8.422;2024-01-30T14:12:01;34.43;;;13.30;;
5458;SDS011;2752;49.992;8.422;2024-01-30T14:14:29;20.97;;;12.50;;
5458;SDS011;2752;49.992;8.422;2024-01-30T14:16:56;26.87;;;14.10;;
5458;SDS011;2752;49.992;8.422;2024-01-30T14:19:23;31.00;;;13.23;;
5458;SDS011;2752;49.992;8.422;2024-01-30T14:21:50;20.60;;;10.17;;
5458;SDS011;2752;49.992;8.422;2024-01-30T14:24:18;23.43;;;12.53;;
5458;SDS011;2752;49.992;8.422;2024-01-30T14:26:45;22.03;;;11.23;;
5458;SDS011;2752;49.992;8.422;2024-01-30T14:29:12;23.20;;;11.83;;
5458;SDS011;2752;49.992;8.422;2024-01-30T14:31:39;20.00;;;11.40;;
5458;SDS011;2752;49.992;8.422;2024-01-30T14:34:06;26.07;;;12.20;;
5458;SDS011;2752;49.992;8.422;2024-01-30T14:36:35;20.67;;;11.33;;
5458;SDS011;2752;49.992;8.422;2024-01-30T14:39:02;23.50;;;11.93;;
5458;SDS011;2752;49.992;8.422;2024-01-30T14:41:33;24.87;;;12.63;;
5458;SDS011;2752;49.992;8.422;2024-01-30T14:44:00;21.13;;;11.27;;
5458;SDS011;2752;49.992;8.422;2024-01-30T14:46:27;27.20;;;12.57;;
5458;SDS011;2752;49.992;8.422;2024-01-30T14:48:54;21.73;;;12.30;;